createdAt,value
2022-12-04T00:00:17.713Z,80.04
2022-12-04T00:03:20.401Z,80.48
2022-12-04T00:06:24.577Z,80.19
2022-12-04T00:09:27.508Z,80.80
2022-12-04T00:12:30.290Z,82.37
2022-12-04T00:15:34.250Z,82.13
2022-12-04T00:18:37.557Z,81.30
2022-12-04T00:21:40.237Z,80.82
2022-12-04T00:24:42.855Z,80.71
2022-12-04T00:27:45.503Z,80.81
2022-12-04T00:30:49.524Z,81.33
2022-12-04T00:33:52.404Z,81.94
2022-12-04T00:36:55.021Z,81.79
2022-12-04T00:39:57.808Z,81.08
2022-12-04T00:43:00.487Z,81.25
2022-12-04T00:46:04.643Z,81.69
2022-12-04T00:49:07.358Z,80.73
2022-12-04T00:52:09.999Z,81.75
2022-12-04T00:55:12.842Z,80.72
2022-12-04T00:58:15.510Z,81.62
2022-12-04T01:01:21.547Z,80.84
2022-12-04T01:04:24.241Z,82.11
2022-12-04T01:07:26.933Z,81.82
2022-12-04T01:10:29.588Z,81.33
2022-12-04T01:13:32.236Z,81.56
2022-12-04T01:16:38.201Z,81.80
2022-12-04T01:19:41.053Z,81.79
2022-12-04T01:22:43.908Z,83.14
2022-12-04T01:25:53.726Z,83.28
2022-12-04T01:28:56.544Z,82.17
2022-12-04T01:32:00.627Z,82.57
2022-12-04T01:35:03.362Z,81.40
2022-12-04T01:38:05.993Z,80.56
2022-12-04T01:41:10.538Z,81.77
2022-12-04T01:44:16.975Z,81.42
2022-12-04T01:47:20.953Z,82.10
2022-12-04T01:50:23.864Z,82.32
2022-12-04T01:53:27.271Z,82.59
2022-12-04T01:56:37.798Z,82.34
2022-12-04T01:59:44.664Z,83.06
2022-12-04T02:02:49.470Z,82.57
2022-12-04T02:05:52.122Z,82.44
2022-12-04T02:08:54.974Z,83.30
2022-12-04T02:12:08.390Z,82.82
2022-12-04T02:15:17.928Z,84.20
2022-12-04T02:18:30.600Z,85.14
2022-12-04T02:21:36.938Z,85.30
2022-12-04T02:24:53.215Z,85.61
2022-12-04T02:28:06.044Z,84.48
2022-12-04T02:31:17.951Z,86.21
2022-12-04T02:34:27.296Z,85.15
2022-12-04T02:37:34.047Z,85.02
2022-12-04T02:40:43.151Z,83.92
2022-12-04T02:43:51.244Z,83.11
2022-12-04T02:46:58.890Z,84.06
2022-12-04T02:50:06.984Z,84.73
2022-12-04T02:53:13.877Z,84.36
2022-12-04T02:56:21.023Z,84.97
2022-12-04T02:59:31.236Z,84.34
2022-12-04T03:02:38.990Z,84.21
2022-12-04T03:05:49.336Z,83.69
2022-12-04T03:08:57.760Z,83.75
2022-12-04T03:12:08.710Z,83.66
2022-12-04T03:15:17.199Z,83.55
2022-12-04T03:18:23.547Z,84.86
2022-12-04T03:21:29.049Z,85.26
2022-12-04T03:24:35.560Z,85.51
2022-12-04T03:27:45.137Z,84.34
2022-12-04T03:30:58.117Z,84.56
2022-12-04T03:34:04.979Z,84.84
2022-12-04T03:37:14.622Z,85.75
2022-12-04T03:40:22.967Z,84.00
2022-12-04T03:43:29.049Z,84.62
2022-12-04T03:46:39.514Z,84.37
2022-12-04T03:49:47.793Z,84.15
2022-12-04T03:52:57.699Z,83.86
2022-12-04T03:56:06.349Z,84.70
2022-12-04T03:59:13.478Z,85.57
2022-12-04T04:02:22.081Z,84.81
2022-12-04T04:05:26.937Z,85.17
2022-12-04T04:08:35.558Z,84.23
2022-12-04T04:11:45.111Z,84.91
2022-12-04T04:15:09.834Z,84.37
2022-12-04T04:18:31.273Z,84.97
2022-12-04T04:22:07.597Z,85.04
2022-12-04T04:25:13.033Z,84.77
2022-12-04T04:28:32.503Z,85.65
2022-12-04T04:31:39.899Z,85.11
2022-12-04T04:34:51.412Z,85.21
2022-12-04T04:38:01.405Z,84.59
2022-12-04T04:41:12.971Z,85.03
2022-12-04T04:44:22.180Z,85.60
2022-12-04T04:47:29.261Z,84.95
2022-12-04T04:50:35.158Z,85.08
2022-12-04T04:53:41.637Z,86.09
2022-12-04T04:56:46.026Z,85.50
2022-12-04T04:59:48.617Z,84.98
2022-12-04T05:02:51.314Z,85.69
2022-12-04T05:05:55.504Z,87.04
2022-12-04T05:08:58.108Z,85.90
2022-12-04T05:12:00.750Z,85.99
2022-12-04T05:15:03.644Z,84.99
2022-12-04T05:18:06.356Z,85.85
2022-12-04T05:21:16.852Z,86.69
2022-12-04T05:24:19.440Z,86.45
2022-12-04T05:27:22.939Z,87.06
2022-12-04T05:30:25.752Z,86.56
2022-12-04T05:33:28.794Z,85.91
2022-12-04T05:36:32.906Z,86.65
2022-12-04T05:39:36.338Z,86.49
2022-12-04T05:42:38.919Z,86.15
2022-12-04T05:45:41.534Z,85.55
2022-12-04T05:48:44.173Z,86.34
2022-12-04T05:51:48.129Z,86.80
2022-12-04T05:54:50.784Z,86.09
2022-12-04T05:57:53.401Z,85.62
2022-12-04T06:00:56.483Z,86.77
2022-12-04T06:03:59.279Z,86.08
2022-12-04T06:07:03.224Z,86.81
2022-12-04T06:10:07.391Z,86.91
2022-12-04T06:13:10.091Z,85.60
2022-12-04T06:16:16.769Z,88.08
2022-12-04T06:19:20.939Z,86.62
2022-12-04T06:22:24.924Z,86.28
2022-12-04T06:25:27.615Z,87.16
2022-12-04T06:28:30.238Z,86.88
2022-12-04T06:31:33.564Z,87.12
2022-12-04T06:34:36.982Z,86.09
2022-12-04T06:37:40.981Z,86.55
2022-12-04T06:40:43.661Z,86.19
2022-12-04T06:43:46.609Z,86.71
2022-12-04T06:46:50.354Z,86.87
2022-12-04T06:49:53.250Z,87.91
2022-12-04T06:52:57.424Z,89.24
2022-12-04T06:56:01.386Z,88.34
2022-12-04T06:59:05.654Z,89.23
2022-12-04T07:02:08.303Z,87.71
2022-12-04T07:05:11.235Z,88.91
2022-12-04T07:08:15.694Z,89.84
2022-12-04T07:11:18.936Z,89.67
2022-12-04T07:14:21.533Z,89.26
2022-12-04T07:17:24.193Z,88.09
2022-12-04T07:20:27.659Z,88.27
2022-12-04T07:23:31.640Z,87.79
2022-12-04T07:26:34.453Z,87.99
2022-12-04T07:29:37.145Z,87.30
2022-12-04T07:32:39.857Z,88.07
2022-12-04T07:35:42.524Z,89.15
2022-12-04T07:38:47.332Z,88.75
2022-12-04T07:41:49.948Z,88.72
2022-12-04T07:44:52.569Z,88.21
2022-12-04T07:47:55.163Z,87.79
2022-12-04T07:51:03.629Z,87.39
2022-12-04T07:54:08.722Z,86.61
2022-12-04T07:57:11.323Z,86.78
2022-12-04T08:00:15.860Z,87.84
2022-12-04T08:03:18.585Z,88.15
2022-12-04T08:06:23.265Z,87.35
2022-12-04T08:09:27.237Z,87.81
2022-12-04T08:12:29.883Z,86.69
2022-12-04T08:15:32.498Z,87.22
2022-12-04T08:18:35.454Z,87.15
2022-12-04T08:21:38.188Z,87.72
2022-12-04T08:24:42.570Z,87.16
2022-12-04T08:27:47.737Z,88.17
2022-12-04T08:30:50.499Z,87.61
2022-12-04T08:33:55.238Z,87.58
2022-12-04T08:36:57.902Z,87.63
2022-12-04T08:40:01.913Z,87.66
2022-12-04T08:43:04.564Z,87.51
2022-12-04T08:46:09.630Z,87.63
2022-12-04T08:49:12.478Z,86.87
2022-12-04T08:52:15.124Z,87.12
2022-12-04T08:55:19.288Z,87.82
2022-12-04T08:58:21.935Z,87.31
2022-12-04T09:01:25.492Z,87.46
2022-12-04T09:04:28.257Z,87.37
2022-12-04T09:07:30.976Z,87.65
2022-12-04T09:10:36.315Z,88.42
2022-12-04T09:13:39.894Z,89.04
2022-12-04T09:16:42.501Z,87.46
2022-12-04T09:19:45.260Z,88.75
2022-12-04T09:23:03.289Z,88.71
2022-12-04T09:26:19.301Z,87.83
2022-12-04T09:29:21.982Z,88.62
2022-12-04T09:32:24.567Z,87.04
2022-12-04T09:35:27.212Z,87.45
2022-12-04T09:38:30.740Z,87.55
2022-12-04T09:41:59.119Z,88.00
2022-12-04T09:45:07.176Z,87.45
2022-12-04T09:48:12.441Z,86.56
2022-12-04T09:51:19.399Z,86.92
2022-12-04T09:54:24.785Z,87.25
2022-12-04T09:57:36.271Z,87.96
2022-12-04T10:00:43.544Z,87.76
2022-12-04T10:03:46.371Z,88.08
2022-12-04T10:06:55.802Z,88.19
2022-12-04T10:10:03.989Z,88.01
2022-12-04T10:13:19.354Z,86.61
2022-12-04T10:16:29.303Z,87.75
2022-12-04T10:19:38.527Z,87.64
2022-12-04T10:22:50.948Z,88.10
2022-12-04T10:25:56.070Z,88.37
2022-12-04T10:29:03.565Z,86.74
2022-12-04T10:32:18.196Z,88.09
2022-12-04T10:35:23.150Z,88.86
2022-12-04T10:38:34.676Z,88.77
2022-12-04T10:41:44.612Z,87.45
2022-12-04T10:44:48.642Z,88.55
2022-12-04T10:47:53.533Z,88.05
2022-12-04T10:50:56.144Z,87.60
2022-12-04T10:53:58.774Z,88.52
2022-12-04T10:57:03.776Z,89.99
2022-12-04T11:00:26.891Z,90.17
2022-12-04T11:03:30.482Z,88.11
2022-12-04T11:06:33.617Z,88.29
2022-12-04T11:09:36.843Z,90.13
2022-12-04T11:12:39.509Z,89.06
2022-12-04T11:15:45.715Z,89.29
2022-12-04T11:18:50.237Z,89.44
2022-12-04T11:21:53.762Z,89.16
2022-12-04T11:24:58.827Z,89.12
2022-12-04T11:28:03.573Z,90.01
2022-12-04T11:31:10.371Z,89.73
2022-12-04T11:34:20.391Z,88.29
2022-12-04T11:37:26.915Z,88.55
2022-12-04T11:40:30.216Z,88.66
2022-12-04T11:43:33.934Z,88.73
2022-12-04T11:46:38.053Z,88.38
2022-12-04T11:49:43.816Z,88.58
2022-12-04T11:52:59.073Z,88.82
2022-12-04T11:56:21.086Z,88.76
2022-12-04T11:59:46.918Z,88.88
2022-12-04T12:03:11.009Z,89.50
2022-12-04T12:06:24.565Z,89.82
2022-12-04T12:09:36.017Z,88.79
2022-12-04T12:12:50.884Z,90.03
2022-12-04T12:16:01.563Z,88.81
2022-12-04T12:19:17.058Z,89.14
2022-12-04T12:22:37.258Z,89.71
2022-12-04T12:25:52.121Z,89.79
2022-12-04T12:29:11.523Z,88.85
2022-12-04T12:32:28.038Z,88.78
2022-12-04T12:35:36.891Z,88.49
2022-12-04T12:38:44.665Z,89.60
2022-12-04T12:41:51.774Z,88.60
2022-12-04T12:45:01.198Z,88.66
2022-12-04T12:48:11.960Z,89.76
2022-12-04T12:51:30.040Z,88.81
2022-12-04T12:54:41.711Z,89.66
2022-12-04T12:57:48.140Z,89.96
2022-12-04T13:01:07.858Z,89.61
2022-12-04T13:04:14.199Z,91.16
2022-12-04T13:07:28.844Z,91.51
2022-12-04T13:10:36.306Z,89.68
2022-12-04T13:13:44.133Z,89.52
2022-12-04T13:16:50.654Z,90.82
2022-12-04T13:19:56.281Z,90.78
2022-12-04T13:23:16.241Z,91.34
2022-12-04T13:26:34.269Z,89.80
2022-12-04T13:29:50.706Z,90.64
2022-12-04T13:33:35.709Z,90.60
2022-12-04T13:36:56.850Z,90.26
2022-12-04T13:40:33.353Z,90.92
2022-12-04T13:43:38.233Z,90.75
2022-12-04T13:46:43.911Z,91.24
2022-12-04T13:49:46.808Z,91.99
2022-12-04T13:52:49.429Z,91.40
2022-12-04T13:56:00.828Z,91.96
2022-12-04T13:59:08.145Z,93.97
2022-12-04T14:02:32.144Z,94.94
2022-12-04T14:05:42.474Z,93.65
2022-12-04T14:08:45.139Z,94.13
2022-12-04T14:11:53.840Z,94.61
2022-12-04T14:14:59.316Z,95.46
2022-12-04T14:18:04.537Z,94.79
2022-12-04T14:21:07.522Z,95.66
2022-12-04T14:24:17.605Z,95.83
2022-12-04T14:27:43.274Z,95.09
2022-12-04T14:30:57.828Z,95.22
2022-12-04T14:34:04.336Z,94.86
2022-12-04T14:37:07.967Z,96.03
2022-12-04T14:40:20.832Z,96.37
2022-12-04T14:43:28.100Z,97.52
2022-12-04T14:46:43.803Z,96.09
2022-12-04T14:50:10.278Z,95.60
2022-12-04T14:53:24.630Z,96.04
2022-12-04T14:56:48.864Z,94.95
2022-12-04T14:59:54.869Z,95.22
2022-12-04T15:03:00.715Z,96.37
2022-12-04T15:06:06.006Z,96.22
2022-12-04T15:09:35.117Z,97.92
2022-12-04T15:12:44.073Z,98.70
2022-12-04T15:15:48.346Z,97.64
2022-12-04T15:18:54.893Z,97.38
2022-12-04T15:21:57.672Z,96.46
2022-12-04T15:25:00.559Z,97.50
2022-12-04T15:28:08.833Z,97.95
2022-12-04T15:31:18.298Z,96.98
2022-12-04T15:34:27.573Z,96.85
2022-12-04T15:37:32.454Z,98.16
2022-12-04T15:40:35.073Z,98.19
2022-12-04T15:43:41.766Z,99.46
2022-12-04T15:46:45.966Z,99.84
2022-12-04T15:49:50.234Z,100.00
2022-12-04T15:52:58.334Z,99.73
2022-12-04T15:56:03.805Z,100.00
2022-12-04T15:59:06.460Z,100.00
2022-12-04T16:02:26.417Z,98.96
2022-12-04T16:05:34.888Z,98.93
2022-12-04T16:08:39.589Z,99.67
2022-12-04T16:11:42.823Z,98.55
2022-12-04T16:14:45.450Z,99.12
2022-12-04T16:17:49.450Z,98.74
2022-12-04T16:20:52.104Z,99.94
2022-12-04T16:23:54.701Z,99.49
2022-12-04T16:26:59.964Z,99.47
2022-12-04T16:30:02.585Z,98.89
2022-12-04T16:33:06.689Z,98.51
2022-12-04T16:36:11.288Z,99.75
2022-12-04T16:39:14.079Z,99.64
2022-12-04T16:42:18.348Z,99.31
2022-12-04T16:45:27.242Z,100.00
2022-12-04T16:48:34.622Z,98.83
2022-12-04T16:51:39.444Z,98.80
2022-12-04T16:54:42.267Z,99.44
2022-12-04T16:57:44.877Z,99.40
2022-12-04T17:00:57.707Z,99.01
2022-12-04T17:04:01.957Z,99.20
2022-12-04T17:07:04.599Z,99.63
2022-12-04T17:10:08.386Z,100.00
2022-12-04T17:13:11.024Z,100.00
2022-12-04T17:16:15.219Z,100.00
2022-12-04T17:19:22.261Z,100.00
2022-12-04T17:22:26.424Z,100.00
2022-12-04T17:25:29.075Z,100.00
2022-12-04T17:28:32.556Z,100.00
2022-12-04T17:31:35.307Z,99.66
2022-12-04T17:34:39.502Z,100.00
2022-12-04T17:37:42.184Z,100.00
2022-12-04T17:40:44.781Z,100.00
2022-12-04T17:43:47.689Z,100.00
2022-12-04T17:46:50.413Z,100.00
2022-12-04T17:49:54.421Z,100.00
2022-12-04T17:52:57.072Z,99.00
2022-12-04T17:56:04.087Z,99.40
2022-12-04T17:59:07.218Z,98.56
2022-12-04T18:02:10.578Z,98.87
2022-12-04T18:05:14.905Z,99.50
2022-12-04T18:08:17.695Z,100.00
2022-12-04T18:11:21.480Z,99.75
2022-12-04T18:14:24.096Z,98.65
2022-12-04T18:17:26.754Z,97.87
2022-12-04T18:20:30.715Z,99.19
2022-12-04T18:23:33.545Z,99.16
2022-12-04T18:26:38.240Z,98.75
2022-12-04T18:29:41.125Z,98.37
2022-12-04T18:32:45.046Z,99.11
2022-12-04T18:35:55.745Z,99.75
2022-12-04T18:39:00.028Z,100.00
2022-12-04T18:42:02.649Z,100.00
2022-12-04T18:45:05.931Z,99.93
2022-12-04T18:48:08.576Z,99.28
2022-12-04T18:51:21.885Z,100.00
2022-12-04T18:54:25.037Z,99.06
2022-12-04T18:57:27.676Z,99.02
2022-12-04T19:00:30.342Z,98.65
2022-12-04T19:03:32.959Z,99.16
2022-12-04T19:06:38.627Z,98.78
2022-12-04T19:10:09.866Z,99.51
2022-12-04T19:13:03.924Z,98.54
2022-12-04T19:16:12.420Z,98.36
2022-12-04T19:19:16.815Z,98.12
2022-12-04T19:22:20.807Z,98.59
2022-12-04T19:25:23.410Z,98.11
2022-12-04T19:28:27.507Z,97.73
2022-12-04T19:31:34.150Z,97.98
2022-12-04T19:34:37.264Z,96.71
2022-12-04T19:37:42.156Z,99.51
2022-12-04T19:40:45.179Z,98.27
2022-12-04T19:43:49.897Z,98.45
2022-12-04T19:46:52.567Z,96.64
2022-12-04T19:49:55.388Z,96.27
2022-12-04T19:52:59.520Z,96.28
2022-12-04T19:56:07.536Z,96.96
2022-12-04T19:59:11.188Z,97.57
2022-12-04T20:02:14.332Z,98.18
2022-12-04T20:05:17.218Z,98.47
2022-12-04T20:08:21.382Z,97.59
2022-12-04T20:11:24.558Z,97.31
2022-12-04T20:14:27.224Z,96.41
2022-12-04T20:17:31.284Z,95.97
2022-12-04T20:20:33.900Z,97.78
2022-12-04T20:23:38.213Z,96.30
2022-12-04T20:26:42.761Z,95.94
2022-12-04T20:29:45.472Z,97.25
2022-12-04T20:32:48.097Z,97.73
2022-12-04T20:35:50.756Z,97.74
2022-12-04T20:38:58.080Z,96.60
2022-12-04T20:42:01.089Z,95.43
2022-12-04T20:45:03.770Z,95.68
2022-12-04T20:48:06.778Z,96.03
2022-12-04T20:51:09.417Z,95.20
2022-12-04T20:54:17.732Z,96.63
2022-12-04T20:57:20.393Z,96.54
2022-12-04T21:00:23.110Z,96.62
2022-12-04T21:03:25.753Z,97.06
2022-12-04T21:06:34.820Z,96.37
2022-12-04T21:09:39.199Z,96.93
2022-12-04T21:12:59.262Z,98.01
2022-12-04T21:16:02.118Z,97.25
2022-12-04T21:19:06.164Z,97.46
2022-12-04T21:22:08.829Z,97.58
2022-12-04T21:25:12.833Z,96.39
2022-12-04T21:28:15.475Z,99.09
2022-12-04T21:31:18.174Z,98.22
2022-12-04T21:34:20.925Z,97.51
2022-12-04T21:37:23.568Z,97.33
2022-12-04T21:40:27.531Z,97.88
2022-12-04T21:43:31.214Z,96.50
2022-12-04T21:46:34.036Z,99.02
2022-12-04T21:49:36.762Z,98.31
2022-12-04T21:52:39.410Z,97.95
2022-12-04T21:55:48.952Z,98.54
2022-12-04T21:58:52.166Z,99.25
2022-12-04T22:01:55.306Z,99.28
2022-12-04T22:04:58.049Z,98.35
2022-12-04T22:08:01.095Z,99.63
2022-12-04T22:11:07.703Z,100.00
2022-12-04T22:14:11.291Z,100.00
2022-12-04T22:17:13.932Z,100.00
2022-12-04T22:20:17.097Z,100.00
2022-12-04T22:23:19.708Z,100.00
2022-12-04T22:26:23.885Z,100.00
2022-12-04T22:29:49.147Z,100.00
2022-12-04T22:32:49.112Z,100.00
2022-12-04T22:35:51.728Z,100.00
2022-12-04T22:39:11.059Z,100.00
2022-12-04T22:42:15.287Z,100.00
2022-12-04T22:45:18.179Z,100.00
2022-12-04T22:48:20.784Z,100.00
2022-12-04T22:51:23.837Z,100.00
2022-12-04T22:54:26.477Z,100.00
2022-12-04T22:57:30.467Z,100.00
2022-12-04T23:00:33.089Z,100.00
2022-12-04T23:03:35.806Z,100.00
2022-12-04T23:06:38.818Z,100.00
2022-12-04T23:09:41.470Z,100.00
2022-12-04T23:12:45.445Z,100.00
2022-12-04T23:15:50.243Z,100.00
2022-12-04T23:18:53.811Z,100.00
2022-12-04T23:21:57.436Z,99.84
2022-12-04T23:25:00.215Z,99.79
2022-12-04T23:28:04.302Z,100.00
2022-12-04T23:31:07.136Z,100.00
2022-12-04T23:34:09.801Z,100.00
2022-12-04T23:37:12.474Z,100.00
2022-12-04T23:40:15.497Z,99.72
2022-12-04T23:43:20.499Z,100.00
2022-12-04T23:46:25.679Z,100.00
2022-12-04T23:49:28.520Z,100.00
2022-12-04T23:52:31.157Z,100.00
2022-12-04T23:55:34.673Z,100.00
2022-12-04T23:58:39.678Z,100.00
